createdAt,value
2018-09-30T00:00:20.038Z,100746.45
2018-09-30T00:00:58.149Z,100748.87
2018-09-30T00:01:36.149Z,100749.94
2018-09-30T00:02:14.096Z,100749.67
2018-09-30T00:02:53.618Z,100751.28
2018-09-30T00:03:33.940Z,100754.49
2018-09-30T00:04:13.305Z,100757.19
2018-09-30T00:04:51.434Z,100757.45
2018-09-30T00:05:30.122Z,100761.23
2018-09-30T00:06:08.328Z,100759.34
2018-09-30T00:06:47.221Z,100760.95
2018-09-30T00:07:26.618Z,100762.84
2018-09-30T00:08:04.827Z,100763.39
2018-09-30T00:08:45.042Z,100765.26
2018-09-30T00:09:26.762Z,100765.78
2018-09-30T00:10:06.741Z,100763.91
2018-09-30T00:10:46.776Z,100764.98
2018-09-30T00:11:25.615Z,100762.80
2018-09-30T00:12:06.026Z,100762.27
2018-09-30T00:12:53.530Z,100758.22
2018-09-30T00:13:36.598Z,100757.94
2018-09-30T00:14:22.644Z,100754.16
2018-09-30T00:15:09.656Z,100760.34
2018-09-30T00:15:47.642Z,100755.77
2018-09-30T00:16:25.545Z,100752.53
2018-09-30T00:17:04.549Z,100752.78
2018-09-30T00:17:52.568Z,100751.70
2018-09-30T00:18:37.226Z,100749.00
2018-09-30T00:19:15.507Z,100752.22
2018-09-30T00:19:53.949Z,100754.38
2018-09-30T00:20:32.075Z,100753.30
2018-09-30T00:21:10.370Z,100754.64
2018-09-30T00:21:48.580Z,100760.00
2018-09-30T00:22:27.279Z,100764.85
2018-09-30T00:23:05.450Z,100762.70
2018-09-30T00:23:47.515Z,100766.18
2018-09-30T00:24:29.488Z,100771.57
2018-09-30T00:25:13.410Z,100772.92
2018-09-30T00:25:58.538Z,100772.89
2018-09-30T00:26:40.641Z,100775.59
2018-09-30T00:27:20.594Z,100783.39
2018-09-30T00:27:59.063Z,100779.34
2018-09-30T00:28:37.749Z,100778.27
2018-09-30T00:29:15.783Z,100783.91
2018-09-30T00:29:53.822Z,100781.22
2018-09-30T00:30:32.057Z,100785.27
2018-09-30T00:31:10.235Z,100787.41
2018-09-30T00:31:48.474Z,100783.91
2018-09-30T00:32:27.435Z,100787.13
2018-09-30T00:33:05.644Z,100793.04
2018-09-30T00:33:48.674Z,100794.65
2018-09-30T00:34:32.351Z,100792.47
2018-09-30T00:35:12.721Z,100793.27
2018-09-30T00:36:03.195Z,100794.59
2018-09-30T00:36:45.584Z,100796.20
2018-09-30T00:37:24.631Z,100800.80
2018-09-30T00:38:02.582Z,100795.41
2018-09-30T00:38:40.584Z,100796.76
2018-09-30T00:39:18.792Z,100805.88
2018-09-30T00:39:57.163Z,100797.80
2018-09-30T00:40:35.336Z,100795.62
2018-09-30T00:41:13.397Z,100789.39
2018-09-30T00:41:51.506Z,100796.40
2018-09-30T00:42:29.407Z,100793.95
2018-09-30T00:43:07.544Z,100795.83
2018-09-30T00:43:45.526Z,100798.50
2018-09-30T00:44:23.608Z,100799.02
2018-09-30T00:45:01.415Z,100806.27
2018-09-30T00:45:39.469Z,100802.75
2018-09-30T00:46:17.618Z,100801.41
2018-09-30T00:46:56.213Z,100792.77
2018-09-30T00:47:34.761Z,100798.66
2018-09-30T00:48:13.070Z,100801.32
2018-09-30T00:48:59.848Z,100802.13
2018-09-30T00:49:50.480Z,100808.33
2018-09-30T00:50:28.690Z,100812.60
2018-09-30T00:51:12.674Z,100807.18
2018-09-30T00:51:51.010Z,100808.23
2018-09-30T00:52:29.808Z,100805.55
2018-09-30T00:53:07.844Z,100807.15
2018-09-30T00:53:49.853Z,100811.45
2018-09-30T00:54:36.365Z,100806.32
2018-09-30T00:55:15.103Z,100805.23
2018-09-30T00:55:53.120Z,100808.44
2018-09-30T00:56:31.095Z,100812.75
2018-09-30T00:57:09.063Z,100807.06
2018-09-30T00:57:47.328Z,100815.12
2018-09-30T00:58:25.402Z,100810.53
2018-09-30T00:59:03.322Z,100813.49
2018-09-30T00:59:42.077Z,100809.70
2018-09-30T01:00:21.784Z,100816.41
2018-09-30T01:00:59.877Z,100808.58
2018-09-30T01:01:38.085Z,100814.49
2018-09-30T01:02:17.019Z,100817.99
2018-09-30T01:02:55.095Z,100815.55
2018-09-30T01:03:33.195Z,100810.41
2018-09-30T01:04:11.400Z,100817.13
2018-09-30T01:04:49.265Z,100819.28
2018-09-30T01:05:27.397Z,100819.80
2018-09-30T01:06:05.304Z,100821.14
2018-09-30T01:06:43.226Z,100820.31
2018-09-30T01:07:21.140Z,100812.79
2018-09-30T01:07:59.042Z,100821.34
2018-09-30T01:08:36.908Z,100824.55
2018-09-30T01:09:17.399Z,100823.45
2018-09-30T01:09:55.533Z,100825.58
2018-09-30T01:10:33.403Z,100824.73
2018-09-30T01:11:11.854Z,100825.03
2018-09-30T01:11:49.880Z,100825.83
2018-09-30T01:12:27.725Z,100827.95
2018-09-30T01:13:05.593Z,100823.90
2018-09-30T01:13:43.373Z,100828.72
2018-09-30T01:14:21.231Z,100829.48
2018-09-30T01:14:59.178Z,100819.56
2018-09-30T01:15:38.227Z,100833.80
2018-09-30T01:16:16.768Z,100841.31
2018-09-30T01:16:55.683Z,100832.12
2018-09-30T01:17:33.520Z,100834.78
2018-09-30T01:18:12.326Z,100841.50
2018-09-30T01:18:50.212Z,100838.25
2018-09-30T01:19:28.300Z,100840.41
2018-09-30T01:20:06.847Z,100838.77
2018-09-30T01:20:44.774Z,100843.58
2018-09-30T01:21:22.673Z,100844.09
2018-09-30T01:22:00.815Z,100840.30
2018-09-30T01:22:39.257Z,100845.95
2018-09-30T01:23:17.531Z,100844.56
2018-09-30T01:23:55.729Z,100849.94
2018-09-30T01:24:34.021Z,100845.55
2018-09-30T01:25:12.257Z,100843.31
2018-09-30T01:25:51.508Z,100840.80
2018-09-30T01:26:29.825Z,100842.64
2018-09-30T01:27:07.947Z,100843.11
2018-09-30T01:27:46.000Z,100842.19
2018-09-30T01:28:24.013Z,100847.97
2018-09-30T01:29:02.007Z,100846.78
2018-09-30T01:29:39.800Z,100850.20
2018-09-30T01:30:18.311Z,100846.91
2018-09-30T01:30:56.296Z,100849.02
2018-09-30T01:31:34.171Z,100851.97
2018-09-30T01:32:12.087Z,100844.36
2018-09-30T01:32:50.945Z,100850.03
2018-09-30T01:33:28.881Z,100850.83
2018-09-30T01:34:06.793Z,100849.72
2018-09-30T01:34:44.692Z,100842.36
2018-09-30T01:35:22.715Z,100845.85
2018-09-30T01:36:00.845Z,100847.71
2018-09-30T01:36:39.018Z,100842.55
2018-09-30T01:37:16.977Z,100841.20
2018-09-30T01:37:54.887Z,100841.95
2018-09-30T01:38:32.764Z,100838.41
2018-09-30T01:39:11.668Z,100843.22
2018-09-30T01:39:50.968Z,100839.91
2018-09-30T01:40:28.929Z,100835.03
2018-09-30T01:41:08.008Z,100840.60
2018-09-30T01:41:48.138Z,100841.61
2018-09-30T01:42:26.060Z,100836.25
2018-09-30T01:43:03.901Z,100840.77
2018-09-30T01:43:41.962Z,100842.36
2018-09-30T01:44:19.786Z,100849.63
2018-09-30T01:44:57.600Z,100849.03
2018-09-30T01:45:35.471Z,100842.77
2018-09-30T01:46:13.345Z,100848.98
2018-09-30T01:46:51.182Z,100848.44
2018-09-30T01:47:29.043Z,100846.28
2018-09-30T01:48:07.072Z,100842.77
2018-09-30T01:48:45.033Z,100842.52
2018-09-30T01:49:23.765Z,100840.66
2018-09-30T01:50:01.748Z,100839.81
2018-09-30T01:50:39.665Z,100836.86
2018-09-30T01:51:18.424Z,100843.06
2018-09-30T01:52:05.070Z,100844.97
2018-09-30T01:52:55.750Z,100843.12
2018-09-30T01:53:33.709Z,100840.45
2018-09-30T01:54:11.581Z,100839.91
2018-09-30T01:54:49.682Z,100845.07
2018-09-30T01:55:27.462Z,100841.56
2018-09-30T01:56:05.362Z,100839.66
2018-09-30T01:56:43.443Z,100841.27
2018-09-30T01:57:22.630Z,100840.16
2018-09-30T01:58:00.479Z,100840.41
2018-09-30T01:58:38.394Z,100841.77
2018-09-30T01:59:16.400Z,100839.81
2018-09-30T01:59:54.206Z,100842.52
2018-09-30T02:00:32.079Z,100841.66
2018-09-30T02:01:09.973Z,100841.09
2018-09-30T02:01:47.801Z,100843.75
2018-09-30T02:02:25.750Z,100841.00
2018-09-30T02:03:03.709Z,100838.84
2018-09-30T02:03:41.445Z,100842.34
2018-09-30T02:04:19.315Z,100841.50
2018-09-30T02:04:58.325Z,100835.83
2018-09-30T02:05:36.161Z,100844.80
2018-09-30T02:06:13.986Z,100837.28
2018-09-30T02:06:52.203Z,100834.88
2018-09-30T02:07:30.122Z,100837.34
2018-09-30T02:08:09.163Z,100841.16
2018-09-30T02:08:48.001Z,100839.27
2018-09-30T02:09:27.862Z,100837.95
2018-09-30T02:10:05.732Z,100832.29
2018-09-30T02:10:44.989Z,100831.19
2018-09-30T02:11:23.010Z,100828.23
2018-09-30T02:12:01.606Z,100827.73
2018-09-30T02:12:39.602Z,100833.55
2018-09-30T02:13:17.510Z,100834.08
2018-09-30T02:13:55.445Z,100826.71
2018-09-30T02:14:34.043Z,100833.98
2018-09-30T02:15:12.093Z,100829.31
2018-09-30T02:15:49.932Z,100831.09
2018-09-30T02:16:29.912Z,100834.23
2018-09-30T02:17:09.008Z,100832.52
2018-09-30T02:17:47.058Z,100830.56
2018-09-30T02:18:25.035Z,100834.02
2018-09-30T02:19:02.955Z,100835.52
2018-09-30T02:19:40.844Z,100829.98
2018-09-30T02:20:18.641Z,100833.86
2018-09-30T02:20:56.495Z,100832.59
2018-09-30T02:21:34.461Z,100838.72
2018-09-30T02:22:12.497Z,100833.47
2018-09-30T02:22:50.308Z,100835.31
2018-09-30T02:23:28.297Z,100834.09
2018-09-30T02:24:06.923Z,100832.87
2018-09-30T02:24:44.777Z,100832.22
2018-09-30T02:25:22.625Z,100833.64
2018-09-30T02:26:01.694Z,100837.59
2018-09-30T02:26:39.469Z,100832.31
2018-09-30T02:27:17.402Z,100830.22
2018-09-30T02:27:55.224Z,100833.08
2018-09-30T02:28:33.193Z,100829.96
2018-09-30T02:29:11.236Z,100837.28
2018-09-30T02:29:49.057Z,100837.88
2018-09-30T02:30:27.021Z,100836.91
2018-09-30T02:31:05.834Z,100839.80
2018-09-30T02:31:43.702Z,100838.62
2018-09-30T02:32:21.707Z,100838.87
2018-09-30T02:32:59.681Z,100837.75
2018-09-30T02:33:37.558Z,100846.52
2018-09-30T02:34:15.421Z,100835.06
2018-09-30T02:34:53.456Z,100840.12
2018-09-30T02:35:31.533Z,100838.83
2018-09-30T02:36:09.412Z,100836.02
2018-09-30T02:36:47.331Z,100833.37
2018-09-30T02:37:25.349Z,100840.71
2018-09-30T02:38:18.368Z,100839.36
2018-09-30T02:38:57.553Z,100841.69
2018-09-30T02:39:36.556Z,100837.86
2018-09-30T02:40:14.555Z,100838.90
2018-09-30T02:40:52.437Z,100838.27
2018-09-30T02:41:30.266Z,100839.88
2018-09-30T02:42:08.126Z,100837.64
2018-09-30T02:42:50.217Z,100840.12
2018-09-30T02:43:28.011Z,100845.86
2018-09-30T02:44:05.861Z,100841.47
2018-09-30T02:44:44.242Z,100841.33
2018-09-30T02:45:22.254Z,100835.27
2018-09-30T02:46:00.339Z,100836.42
2018-09-30T02:46:39.177Z,100843.27
2018-09-30T02:47:17.674Z,100840.65
2018-09-30T02:47:55.454Z,100838.88
2018-09-30T02:48:33.280Z,100837.59
2018-09-30T02:49:11.159Z,100838.31
2018-09-30T02:49:52.283Z,100838.95
2018-09-30T02:50:30.382Z,100836.72
2018-09-30T02:51:08.362Z,100840.16
2018-09-30T02:51:46.354Z,100838.25
2018-09-30T02:52:24.164Z,100835.84
2018-09-30T02:53:02.020Z,100841.13
2018-09-30T02:53:40.208Z,100836.59
2018-09-30T02:54:18.095Z,100836.43
2018-09-30T02:54:55.937Z,100838.03
2018-09-30T02:55:33.834Z,100829.40
2018-09-30T02:56:11.868Z,100832.36
2018-09-30T02:56:49.969Z,100829.64
2018-09-30T02:57:27.825Z,100826.13
2018-09-30T02:58:06.721Z,100826.24
2018-09-30T02:58:44.570Z,100827.89
2018-09-30T02:59:23.987Z,100830.12
2018-09-30T03:00:02.396Z,100825.56
2018-09-30T03:00:40.289Z,100830.83
2018-09-30T03:01:19.439Z,100829.22
2018-09-30T03:01:57.291Z,100824.91
2018-09-30T03:02:35.516Z,100827.63
2018-09-30T03:03:15.400Z,100826.02
2018-09-30T03:03:53.505Z,100824.98
2018-09-30T03:04:31.631Z,100828.33
2018-09-30T03:05:09.670Z,100820.50
2018-09-30T03:05:47.605Z,100829.20
2018-09-30T03:06:29.502Z,100820.81
2018-09-30T03:07:11.474Z,100827.36
2018-09-30T03:07:53.554Z,100830.88
2018-09-30T03:08:35.916Z,100828.72
2018-09-30T03:09:18.828Z,100833.03
2018-09-30T03:09:56.596Z,100828.96
2018-09-30T03:10:34.758Z,100826.00
2018-09-30T03:11:12.846Z,100831.50
2018-09-30T03:11:50.825Z,100830.95
2018-09-30T03:12:28.682Z,100828.47
2018-09-30T03:13:06.973Z,100827.16
2018-09-30T03:13:44.854Z,100828.34
2018-09-30T03:14:22.795Z,100830.98
2018-09-30T03:15:00.713Z,100827.47
2018-09-30T03:15:38.586Z,100822.84
2018-09-30T03:16:17.708Z,100824.52
2018-09-30T03:16:55.561Z,100826.02
2018-09-30T03:17:33.545Z,100824.73
2018-09-30T03:18:11.482Z,100818.33
2018-09-30T03:18:49.389Z,100819.44
2018-09-30T03:19:27.256Z,100816.41
2018-09-30T03:20:05.283Z,100815.30
2018-09-30T03:20:44.471Z,100811.47
2018-09-30T03:21:22.577Z,100813.06
2018-09-30T03:22:00.478Z,100811.40
2018-09-30T03:22:39.303Z,100811.95
2018-09-30T03:23:17.206Z,100816.10
2018-09-30T03:23:55.636Z,100815.23
2018-09-30T03:24:33.732Z,100816.27
2018-09-30T03:25:11.877Z,100818.42
2018-09-30T03:25:49.974Z,100813.80
2018-09-30T03:26:27.934Z,100816.76
2018-09-30T03:27:06.078Z,100820.83
2018-09-30T03:27:44.774Z,100817.80
2018-09-30T03:28:22.766Z,100818.84
2018-09-30T03:29:00.781Z,100817.24
2018-09-30T03:29:38.872Z,100813.41
2018-09-30T03:30:18.116Z,100819.33
2018-09-30T03:30:57.010Z,100813.17
2018-09-30T03:31:34.906Z,100814.28
2018-09-30T03:32:12.734Z,100813.17
2018-09-30T03:32:50.613Z,100818.36
2018-09-30T03:33:28.597Z,100818.59
2018-09-30T03:34:06.537Z,100814.28
2018-09-30T03:34:44.408Z,100816.76
2018-09-30T03:35:22.297Z,100814.28
2018-09-30T03:36:00.115Z,100815.71
2018-09-30T03:36:37.970Z,100815.16
2018-09-30T03:37:16.817Z,100806.52
2018-09-30T03:38:08.603Z,100814.04
2018-09-30T03:38:46.440Z,100812.44
2018-09-30T03:39:25.585Z,100809.66
2018-09-30T03:40:03.557Z,100812.37
2018-09-30T03:40:41.459Z,100812.92
2018-09-30T03:41:19.351Z,100802.06
2018-09-30T03:41:57.208Z,100805.58
2018-09-30T03:42:35.199Z,100804.47
2018-09-30T03:43:14.275Z,100803.42
2018-09-30T03:43:52.354Z,100806.14
2018-09-30T03:44:30.286Z,100807.98
2018-09-30T03:45:08.417Z,100802.31
2018-09-30T03:45:47.199Z,100804.47
2018-09-30T03:46:25.223Z,100800.16
2018-09-30T03:47:03.092Z,100804.15
2018-09-30T03:47:41.010Z,100799.52
2018-09-30T03:48:18.980Z,100799.03
2018-09-30T03:48:56.995Z,100798.48
2018-09-30T03:49:34.969Z,100791.38
2018-09-30T03:50:14.263Z,100793.29
2018-09-30T03:50:52.205Z,100789.94
2018-09-30T03:51:30.006Z,100788.59
2018-09-30T03:52:08.277Z,100793.41
2018-09-30T03:52:47.467Z,100787.67
2018-09-30T03:53:25.595Z,100781.68
2018-09-30T03:54:03.570Z,100792.95
2018-09-30T03:54:41.646Z,100782.81
2018-09-30T03:55:19.599Z,100785.70
2018-09-30T03:55:57.720Z,100784.19
2018-09-30T03:56:35.704Z,100783.89
2018-09-30T03:57:13.662Z,100777.78
2018-09-30T03:57:51.686Z,100783.94
2018-09-30T03:58:29.514Z,100778.67
2018-09-30T03:59:07.390Z,100779.70
2018-09-30T03:59:45.179Z,100776.27
2018-09-30T04:00:22.996Z,100778.91
2018-09-30T04:01:00.961Z,100782.14
2018-09-30T04:01:39.058Z,100781.50
2018-09-30T04:02:17.084Z,100776.78
2018-09-30T04:02:54.977Z,100776.47
2018-09-30T04:03:32.984Z,100775.27
2018-09-30T04:04:10.909Z,100775.75
2018-09-30T04:04:50.376Z,100778.86
2018-09-30T04:05:28.243Z,100777.69
2018-09-30T04:06:06.128Z,100772.41
2018-09-30T04:06:44.952Z,100775.28
2018-09-30T04:07:22.955Z,100771.92
2018-09-30T04:08:01.142Z,100774.51
2018-09-30T04:08:39.083Z,100761.63
2018-09-30T04:09:17.200Z,100764.27
2018-09-30T04:09:55.105Z,100767.86
2018-09-30T04:10:33.208Z,100761.87
2018-09-30T04:11:11.137Z,100762.58
2018-09-30T04:11:49.050Z,100762.52
2018-09-30T04:12:27.287Z,100764.92
2018-09-30T04:13:05.169Z,100761.48
2018-09-30T04:13:44.562Z,100759.63
2018-09-30T04:14:22.920Z,100757.41
2018-09-30T04:15:00.709Z,100765.48
2018-09-30T04:15:38.766Z,100758.59
2018-09-30T04:16:17.638Z,100758.84
2018-09-30T04:16:55.581Z,100760.67
2018-09-30T04:17:33.504Z,100759.31
2018-09-30T04:18:12.946Z,100760.44
2018-09-30T04:18:50.734Z,100761.14
2018-09-30T04:19:28.548Z,100760.27
2018-09-30T04:20:06.606Z,100761.30
2018-09-30T04:20:44.668Z,100761.53
2018-09-30T04:21:22.940Z,100762.81
2018-09-30T04:22:00.889Z,100757.37
2018-09-30T04:22:38.779Z,100759.20
2018-09-30T04:23:16.629Z,100754.00
2018-09-30T04:24:01.641Z,100754.51
2018-09-30T04:24:39.453Z,100753.44
2018-09-30T04:25:18.659Z,100755.55
2018-09-30T04:25:56.777Z,100747.94
2018-09-30T04:26:34.666Z,100744.98
2018-09-30T04:27:14.141Z,100746.02
2018-09-30T04:27:52.185Z,100748.18
2018-09-30T04:28:30.063Z,100741.61
2018-09-30T04:29:08.193Z,100737.53
2018-09-30T04:29:46.028Z,100738.33
2018-09-30T04:30:23.903Z,100741.05
2018-09-30T04:31:01.886Z,100738.33
2018-09-30T04:31:39.744Z,100737.77
2018-09-30T04:32:17.628Z,100734.25
2018-09-30T04:32:55.528Z,100736.64
2018-09-30T04:33:33.410Z,100735.29
2018-09-30T04:34:11.363Z,100737.45
2018-09-30T04:34:49.136Z,100731.68
2018-09-30T04:35:27.627Z,100734.63
2018-09-30T04:36:05.477Z,100729.67
2018-09-30T04:36:43.290Z,100724.47
2018-09-30T04:37:21.195Z,100725.59
2018-09-30T04:37:59.085Z,100724.94
2018-09-30T04:38:36.961Z,100726.77
2018-09-30T04:39:15.749Z,100723.75
2018-09-30T04:39:53.615Z,100719.58
2018-09-30T04:40:31.729Z,100720.05
2018-09-30T04:41:09.940Z,100718.95
2018-09-30T04:41:47.789Z,100716.23
2018-09-30T04:42:26.851Z,100713.98
2018-09-30T04:43:05.775Z,100716.38
2018-09-30T04:43:43.728Z,100714.13
2018-09-30T04:44:23.055Z,100712.67
2018-09-30T04:45:01.042Z,100708.17
2018-09-30T04:45:39.852Z,100711.59
2018-09-30T04:46:17.649Z,100706.86
2018-09-30T04:46:55.762Z,100709.72
2018-09-30T04:47:34.778Z,100711.48
2018-09-30T04:48:12.769Z,100702.66
2018-09-30T04:48:50.706Z,100699.75
2018-09-30T04:49:28.809Z,100705.09
2018-09-30T04:50:06.696Z,100702.75
2018-09-30T04:50:44.818Z,100701.31
2018-09-30T04:51:22.645Z,100699.89
2018-09-30T04:52:00.509Z,100698.77
2018-09-30T04:52:38.393Z,100697.07
2018-09-30T04:53:16.464Z,100697.53
2018-09-30T04:53:54.435Z,100700.39
2018-09-30T04:54:32.452Z,100695.41
2018-09-30T04:55:10.327Z,100697.23
2018-09-30T04:55:48.178Z,100689.77
2018-09-30T04:56:25.997Z,100687.73
2018-09-30T04:57:04.013Z,100690.93
2018-09-30T04:57:41.905Z,100691.42
2018-09-30T04:58:19.800Z,100687.57
2018-09-30T04:58:59.049Z,100691.66
2018-09-30T04:59:37.088Z,100684.62
2018-09-30T05:00:14.998Z,100682.76
2018-09-30T05:00:52.771Z,100680.90
2018-09-30T05:01:30.637Z,100680.86
2018-09-30T05:02:08.569Z,100678.84
2018-09-30T05:02:46.827Z,100682.36
2018-09-30T05:03:24.819Z,100681.89
2018-09-30T05:04:02.706Z,100677.71
2018-09-30T05:04:41.155Z,100678.41
2018-09-30T05:05:19.953Z,100673.86
2018-09-30T05:05:58.807Z,100679.20
2018-09-30T05:06:36.848Z,100679.11
2018-09-30T05:07:14.727Z,100674.69
2018-09-30T05:07:52.515Z,100672.20
2018-09-30T05:08:30.908Z,100666.41
2018-09-30T05:09:10.662Z,100671.23
2018-09-30T05:09:49.940Z,100672.95
2018-09-30T05:10:28.719Z,100672.62
2018-09-30T05:11:07.727Z,100671.02
2018-09-30T05:11:45.627Z,100662.28
2018-09-30T05:12:23.474Z,100664.01
2018-09-30T05:13:01.280Z,100665.60
2018-09-30T05:13:39.124Z,100665.16
2018-09-30T05:14:17.138Z,100661.31
2018-09-30T05:14:55.104Z,100656.55
2018-09-30T05:15:33.898Z,100660.00
2018-09-30T05:16:11.916Z,100656.64
2018-09-30T05:16:49.792Z,100648.25
2018-09-30T05:17:27.632Z,100651.44
2018-09-30T05:18:05.904Z,100650.64
2018-09-30T05:18:44.787Z,100647.12
2018-09-30T05:19:22.564Z,100647.79
2018-09-30T05:20:00.580Z,100642.21
2018-09-30T05:20:38.571Z,100646.43
2018-09-30T05:21:16.429Z,100645.41
2018-09-30T05:21:54.227Z,100645.06
2018-09-30T05:22:32.094Z,100643.23
2018-09-30T05:23:10.112Z,100637.45
2018-09-30T05:23:47.946Z,100640.41
2018-09-30T05:24:25.882Z,100639.28
2018-09-30T05:25:03.792Z,100640.66
2018-09-30T05:25:41.756Z,100633.17
2018-09-30T05:26:19.780Z,100642.19
2018-09-30T05:26:57.680Z,100639.81
2018-09-30T05:27:35.600Z,100632.89
2018-09-30T05:28:13.410Z,100636.75
2018-09-30T05:28:51.341Z,100629.83
2018-09-30T05:29:29.236Z,100634.04
2018-09-30T05:30:07.957Z,100632.11
2018-09-30T05:30:45.758Z,100632.56
2018-09-30T05:31:24.501Z,100630.41
2018-09-30T05:32:02.379Z,100629.27
2018-09-30T05:32:40.480Z,100629.50
2018-09-30T05:33:18.448Z,100621.32
2018-09-30T05:33:56.505Z,100626.09
2018-09-30T05:34:34.750Z,100619.77
2018-09-30T05:35:12.613Z,100621.82
2018-09-30T05:35:50.799Z,100621.17
2018-09-30T05:36:28.733Z,100623.33
2018-09-30T05:37:06.645Z,100627.98
2018-09-30T05:37:44.630Z,100618.22
2018-09-30T05:38:22.536Z,100625.91
2018-09-30T05:39:00.483Z,100621.78
2018-09-30T05:39:38.425Z,100623.82
2018-09-30T05:40:17.084Z,100624.61
2018-09-30T05:40:54.960Z,100617.90
2018-09-30T05:41:32.756Z,100621.53
2018-09-30T05:42:11.009Z,100626.75
2018-09-30T05:42:48.849Z,100620.56
2018-09-30T05:43:26.971Z,100620.80
2018-09-30T05:44:06.755Z,100622.84
2018-09-30T05:44:44.759Z,100623.72
2018-09-30T05:45:22.822Z,100616.09
2018-09-30T05:46:01.772Z,100619.53
2018-09-30T05:46:40.131Z,100623.16
2018-09-30T05:47:17.972Z,100621.56
2018-09-30T05:47:55.874Z,100620.31
2018-09-30T05:48:34.691Z,100622.00
2018-09-30T05:49:12.700Z,100621.31
2018-09-30T05:49:50.692Z,100622.22
2018-09-30T05:50:28.518Z,100618.12
2018-09-30T05:51:06.424Z,100620.19
2018-09-30T05:51:44.311Z,100614.17
2018-09-30T05:52:22.603Z,100617.92
2018-09-30T05:53:00.482Z,100618.59
2018-09-30T05:53:38.401Z,100609.85
2018-09-30T05:54:16.901Z,100609.05
2018-09-30T05:54:55.677Z,100605.87
2018-09-30T05:55:33.790Z,100604.27
2018-09-30T05:56:11.675Z,100606.09
2018-09-30T05:56:49.671Z,100599.52
2018-09-30T05:57:27.668Z,100598.62
2018-09-30T05:58:05.591Z,100599.08
2018-09-30T05:58:44.386Z,100595.34
2018-09-30T05:59:23.147Z,100595.50
2018-09-30T06:00:00.970Z,100589.64
2018-09-30T06:00:39.984Z,100588.86
2018-09-30T06:01:17.968Z,100587.05
2018-09-30T06:01:55.754Z,100591.94
2018-09-30T06:02:34.668Z,100586.48
2018-09-30T06:03:12.441Z,100577.41
2018-09-30T06:03:50.489Z,100576.27
2018-09-30T06:04:28.638Z,100580.17
2018-09-30T06:05:06.437Z,100575.86
2018-09-30T06:05:44.546Z,100577.57
2018-09-30T06:06:22.916Z,100570.88
2018-09-30T06:07:00.746Z,100574.52
2018-09-30T06:07:38.672Z,100572.92
2018-09-30T06:08:17.279Z,100570.57
2018-09-30T06:08:55.176Z,100571.14
2018-09-30T06:09:33.182Z,100567.50
2018-09-30T06:10:12.285Z,100569.58
2018-09-30T06:10:50.214Z,100567.65
2018-09-30T06:11:28.046Z,100567.19
2018-09-30T06:12:06.952Z,100565.97
2018-09-30T06:12:44.791Z,100564.61
2018-09-30T06:13:22.757Z,100563.35
2018-09-30T06:14:00.732Z,100558.34
2018-09-30T06:14:38.654Z,100558.34
2018-09-30T06:15:16.662Z,100546.75
2018-09-30T06:15:54.772Z,100545.38
2018-09-30T06:16:33.503Z,100543.00
2018-09-30T06:17:11.313Z,100548.11
2018-09-30T06:17:49.190Z,100537.53
2018-09-30T06:18:27.070Z,100542.98
2018-09-30T06:19:04.972Z,100543.22
2018-09-30T06:19:43.747Z,100543.69
2018-09-30T06:20:21.818Z,100540.05
2018-09-30T06:21:00.041Z,100538.00
2018-09-30T06:21:38.070Z,100543.80
2018-09-30T06:22:16.633Z,100535.16
2018-09-30T06:22:54.665Z,100534.69
2018-09-30T06:23:32.844Z,100533.66
2018-09-30T06:24:13.758Z,100526.62
2018-09-30T06:24:51.768Z,100534.93
2018-09-30T06:25:29.723Z,100531.97
2018-09-30T06:26:08.345Z,100529.81
2018-09-30T06:26:47.124Z,100526.62
2018-09-30T06:27:28.300Z,100531.62
2018-09-30T06:28:15.597Z,100529.35
2018-09-30T06:28:53.761Z,100525.48
2018-09-30T06:29:31.638Z,100525.95
2018-09-30T06:30:09.758Z,100520.49
2018-09-30T06:30:47.623Z,100525.72
2018-09-30T06:31:26.496Z,100523.56
2018-09-30T06:32:04.376Z,100519.81
2018-09-30T06:32:42.265Z,100525.27
2018-09-30T06:33:20.186Z,100519.59
2018-09-30T06:33:58.311Z,100520.04
2018-09-30T06:34:36.416Z,100521.63
2018-09-30T06:35:14.841Z,100515.48
2018-09-30T06:35:52.721Z,100517.64
2018-09-30T06:36:30.683Z,100518.66
2018-09-30T06:37:08.625Z,100517.75
2018-09-30T06:37:46.469Z,100514.11
2018-09-30T06:38:24.530Z,100516.39
2018-09-30T06:39:02.325Z,100514.00
2018-09-30T06:39:40.401Z,100511.62
2018-09-30T06:40:18.236Z,100511.17
2018-09-30T06:40:56.290Z,100512.30
2018-09-30T06:41:34.174Z,100507.98
2018-09-30T06:42:12.033Z,100512.75
2018-09-30T06:42:49.861Z,100514.34
2018-09-30T06:43:27.684Z,100509.34
2018-09-30T06:44:05.641Z,100503.20
2018-09-30T06:44:43.758Z,100504.66
2018-09-30T06:45:21.681Z,100506.28
2018-09-30T06:45:59.501Z,100506.85
2018-09-30T06:46:37.397Z,100500.26
2018-09-30T06:47:15.226Z,100504.58
2018-09-30T06:47:53.271Z,100499.79
2018-09-30T06:48:31.108Z,100501.83
2018-09-30T06:49:08.997Z,100502.19
2018-09-30T06:49:46.858Z,100497.05
2018-09-30T06:50:24.832Z,100495.24
2018-09-30T06:51:02.886Z,100490.36
2018-09-30T06:51:40.919Z,100488.87
2018-09-30T06:52:19.582Z,100489.09
2018-09-30T06:52:57.360Z,100487.73
2018-09-30T06:53:35.218Z,100481.58
2018-09-30T06:54:14.097Z,100483.86
2018-09-30T06:54:52.061Z,100485.45
2018-09-30T06:55:30.158Z,100485.91
2018-09-30T06:56:08.032Z,100481.68
2018-09-30T06:56:46.108Z,100476.31
2018-09-30T06:57:24.194Z,100480.52
2018-09-30T06:58:02.188Z,100472.89
2018-09-30T06:58:40.034Z,100471.75
2018-09-30T06:59:18.120Z,100472.20
2018-09-30T06:59:55.933Z,100473.78
2018-09-30T07:00:33.821Z,100475.38
2018-09-30T07:01:11.863Z,100472.30
2018-09-30T07:01:49.692Z,100463.53
2018-09-30T07:02:27.686Z,100470.83
2018-09-30T07:03:05.795Z,100472.08
2018-09-30T07:03:43.634Z,100461.50
2018-09-30T07:04:21.473Z,100463.18
2018-09-30T07:04:59.384Z,100468.30
2018-09-30T07:05:39.048Z,100462.48
2018-09-30T07:06:17.351Z,100460.22
2018-09-30T07:06:55.243Z,100461.11
2018-09-30T07:07:33.110Z,100462.00
2018-09-30T07:08:11.578Z,100454.25
2018-09-30T07:08:49.421Z,100461.20
2018-09-30T07:09:27.265Z,100459.61
2018-09-30T07:10:05.804Z,100461.91
2018-09-30T07:10:43.686Z,100459.17
2018-09-30T07:11:22.817Z,100462.56
2018-09-30T07:12:00.775Z,100453.45
2018-09-30T07:12:39.419Z,100456.63
2018-09-30T07:13:17.350Z,100462.75
2018-09-30T07:13:56.498Z,100456.63
2018-09-30T07:14:34.554Z,100455.48
2018-09-30T07:15:12.713Z,100457.86
2018-09-30T07:15:50.605Z,100450.45
2018-09-30T07:16:28.587Z,100446.13
2018-09-30T07:17:06.477Z,100448.64
2018-09-30T07:17:44.650Z,100440.01
2018-09-30T07:18:22.624Z,100437.05
2018-09-30T07:19:00.587Z,100435.59
2018-09-30T07:19:38.407Z,100436.30